sensor_id;sensor_type;location;lat;lon;timestamp;P1;durP1;ratioP1;P2;durP2;ratioP2
13366;SDS011;6752;52.612;13.630;2024-03-22T00:03:10;12.53;;;10.90;;
13366;SDS011;6752;52.612;13.630;2024-03-22T00:08:13;13.77;;;12.37;;
13366;SDS011;6752;52.612;13.630;2024-03-22T00:13:15;12.50;;;11.20;;
13366;SDS011;6752;52.612;13.630;2024-03-22T00:18:17;12.63;;;10.67;;
13366;SDS011;6752;52.612;13.630;2024-03-22T00:23:20;12.98;;;11.75;;
13366;SDS011;6752;52.612;13.630;2024-03-22T00:28:22;11.83;;;10.60;;
13366;SDS011;6752;52.612;13.630;2024-03-22T00:33:24;13.33;;;11.43;;
13366;SDS011;6752;52.612;13.630;2024-03-22T00:38:27;13.83;;;12.03;;
13366;SDS011;6752;52.612;13.630;2024-03-22T00:43:29;12.97;;;11.40;;
13366;SDS011;6752;52.612;13.630;2024-03-22T00:48:32;12.00;;;10.70;;
13366;SDS011;6752;52.612;13.630;2024-03-22T00:53:34;13.07;;;10.80;;
13366;SDS011;6752;52.612;13.630;2024-03-22T00:58:36;13.10;;;11.57;;
13366;SDS011;6752;52.612;13.630;2024-03-22T01:03:39;12.63;;;11.23;;
13366;SDS011;6752;52.612;13.630;2024-03-22T01:08:41;13.93;;;11.60;;
13366;SDS011;6752;52.612;13.630;2024-03-22T01:13:43;14.90;;;12.67;;
13366;SDS011;6752;52.612;13.630;2024-03-22T01:18:46;16.37;;;14.00;;
13366;SDS011;6752;52.612;13.630;2024-03-22T01:23:48;17.43;;;14.03;;
13366;SDS011;6752;52.612;13.630;2024-03-22T01:28:51;17.23;;;14.63;;
13366;SDS011;6752;52.612;13.630;2024-03-22T01:33:53;15.30;;;13.80;;
13366;SDS011;6752;52.612;13.630;2024-03-22T01:38:55;16.03;;;14.00;;
13366;SDS011;6752;52.612;13.630;2024-03-22T01:43:58;18.37;;;14.93;;
13366;SDS011;6752;52.612;13.630;2024-03-22T01:49:00;18.70;;;16.30;;
13366;SDS011;6752;52.612;13.630;2024-03-22T01:54:03;16.57;;;14.50;;
13366;SDS011;6752;52.612;13.630;2024-03-22T01:59:06;19.00;;;16.43;;
13366;SDS011;6752;52.612;13.630;2024-03-22T02:04:08;18.50;;;16.70;;
13366;SDS011;6752;52.612;13.630;2024-03-22T02:09:10;18.40;;;16.60;;
13366;SDS011;6752;52.612;13.630;2024-03-22T02:14:13;18.17;;;16.03;;
13366;SDS011;6752;52.612;13.630;2024-03-22T02:19:15;16.53;;;14.37;;
13366;SDS011;6752;52.612;13.630;2024-03-22T02:24:17;18.20;;;16.50;;
13366;SDS011;6752;52.612;13.630;2024-03-22T02:29:20;19.05;;;17.17;;
13366;SDS011;6752;52.612;13.630;2024-03-22T02:34:22;19.90;;;16.90;;
13366;SDS011;6752;52.612;13.630;2024-03-22T02:39:25;20.37;;;16.90;;
13366;SDS011;6752;52.612;13.630;2024-03-22T02:44:27;20.23;;;18.23;;
13366;SDS011;6752;52.612;13.630;2024-03-22T02:49:29;18.30;;;16.07;;
13366;SDS011;6752;52.612;13.630;2024-03-22T02:54:32;21.63;;;17.20;;
13366;SDS011;6752;52.612;13.630;2024-03-22T02:59:34;18.43;;;15.30;;
13366;SDS011;6752;52.612;13.630;2024-03-22T03:04:36;21.87;;;17.57;;
13366;SDS011;6752;52.612;13.630;2024-03-22T03:09:39;21.25;;;19.05;;
13366;SDS011;6752;52.612;13.630;2024-03-22T03:14:41;19.13;;;15.23;;
13366;SDS011;6752;52.612;13.630;2024-03-22T03:19:44;24.50;;;18.50;;
13366;SDS011;6752;52.612;13.630;2024-03-22T03:24:46;22.20;;;16.97;;
13366;SDS011;6752;52.612;13.630;2024-03-22T03:29:48;18.67;;;14.70;;
13366;SDS011;6752;52.612;13.630;2024-03-22T03:34:51;20.00;;;16.70;;
13366;SDS011;6752;52.612;13.630;2024-03-22T03:39:53;21.43;;;17.17;;
13366;SDS011;6752;52.612;13.630;2024-03-22T03:44:55;21.00;;;15.77;;
13366;SDS011;6752;52.612;13.630;2024-03-22T03:49:58;22.97;;;16.73;;
13366;SDS011;6752;52.612;13.630;2024-03-22T03:55:00;21.43;;;15.87;;
13366;SDS011;6752;52.612;13.630;2024-03-22T04:00:02;24.90;;;17.73;;
13366;SDS011;6752;52.612;13.630;2024-03-22T04:05:05;20.07;;;14.80;;
13366;SDS011;6752;52.612;13.630;2024-03-22T04:10:07;24.33;;;16.90;;
13366;SDS011;6752;52.612;13.630;2024-03-22T04:15:10;21.43;;;16.37;;
13366;SDS011;6752;52.612;13.630;2024-03-22T04:20:12;22.07;;;16.57;;
13366;SDS011;6752;52.612;13.630;2024-03-22T04:25:14;19.90;;;15.07;;
13366;SDS011;6752;52.612;13.630;2024-03-22T04:30:24;21.67;;;14.87;;
13366;SDS011;6752;52.612;13.630;2024-03-22T04:35:26;22.53;;;15.80;;
13366;SDS011;6752;52.612;13.630;2024-03-22T04:40:28;19.20;;;14.70;;
13366;SDS011;6752;52.612;13.630;2024-03-22T04:45:31;23.53;;;16.07;;
13366;SDS011;6752;52.612;13.630;2024-03-22T04:50:33;20.93;;;15.87;;
13366;SDS011;6752;52.612;13.630;2024-03-22T04:55:35;21.33;;;15.50;;
13366;SDS011;6752;52.612;13.630;2024-03-22T05:00:38;23.13;;;15.70;;
13366;SDS011;6752;52.612;13.630;2024-03-22T05:05:40;21.07;;;15.23;;
13366;SDS011;6752;52.612;13.630;2024-03-22T05:10:44;17.92;;;15.80;;
13366;SDS011;6752;52.612;13.630;2024-03-22T05:15:46;17.00;;;13.57;;
13366;SDS011;6752;52.612;13.630;2024-03-22T05:20:48;16.37;;;12.73;;
13366;SDS011;6752;52.612;13.630;2024-03-22T05:25:51;19.13;;;13.27;;
13366;SDS011;6752;52.612;13.630;2024-03-22T05:30:53;17.20;;;12.77;;
13366;SDS011;6752;52.612;13.630;2024-03-22T05:35:55;17.05;;;14.70;;
13366;SDS011;6752;52.612;13.630;2024-03-22T05:40:58;17.73;;;13.10;;
13366;SDS011;6752;52.612;13.630;2024-03-22T05:46:00;20.97;;;14.87;;
13366;SDS011;6752;52.612;13.630;2024-03-22T05:51:02;20.80;;;14.93;;
13366;SDS011;6752;52.612;13.630;2024-03-22T05:56:05;17.60;;;15.68;;
13366;SDS011;6752;52.612;13.630;2024-03-22T06:01:07;21.13;;;16.00;;
13366;SDS011;6752;52.612;13.630;2024-03-22T06:06:10;20.97;;;15.37;;
13366;SDS011;6752;52.612;13.630;2024-03-22T06:11:12;19.57;;;14.13;;
13366;SDS011;6752;52.612;13.630;2024-03-22T06:16:14;20.03;;;14.60;;
13366;SDS011;6752;52.612;13.630;2024-03-22T06:21:17;18.63;;;13.50;;
13366;SDS011;6752;52.612;13.630;2024-03-22T06:26:19;19.20;;;14.53;;
13366;SDS011;6752;52.612;13.630;2024-03-22T06:31:21;18.10;;;13.43;;
13366;SDS011;6752;52.612;13.630;2024-03-22T06:36:24;19.83;;;14.43;;
13366;SDS011;6752;52.612;13.630;2024-03-22T06:41:27;18.40;;;14.00;;
13366;SDS011;6752;52.612;13.630;2024-03-22T06:46:29;16.40;;;13.40;;
13366;SDS011;6752;52.612;13.630;2024-03-22T06:51:31;18.13;;;13.43;;
13366;SDS011;6752;52.612;13.630;2024-03-22T06:56:33;19.50;;;13.37;;
13366;SDS011;6752;52.612;13.630;2024-03-22T07:01:36;17.40;;;13.60;;
13366;SDS011;6752;52.612;13.630;2024-03-22T07:06:38;19.17;;;13.30;;
13366;SDS011;6752;52.612;13.630;2024-03-22T07:11:40;18.03;;;13.07;;
13366;SDS011;6752;52.612;13.630;2024-03-22T07:16:43;16.85;;;14.45;;
13366;SDS011;6752;52.612;13.630;2024-03-22T07:21:45;16.08;;;14.07;;
13366;SDS011;6752;52.612;13.630;2024-03-22T07:26:48;17.00;;;13.40;;
13366;SDS011;6752;52.612;13.630;2024-03-22T07:31:51;18.93;;;13.10;;
13366;SDS011;6752;52.612;13.630;2024-03-22T07:36:53;17.97;;;14.33;;
13366;SDS011;6752;52.612;13.630;2024-03-22T07:41:56;17.17;;;13.00;;
13366;SDS011;6752;52.612;13.630;2024-03-22T07:46:58;17.83;;;13.33;;
13366;SDS011;6752;52.612;13.630;2024-03-22T07:52:00;19.47;;;14.27;;
13366;SDS011;6752;52.612;13.630;2024-03-22T07:57:03;20.43;;;15.57;;
13366;SDS011;6752;52.612;13.630;2024-03-22T08:02:05;22.53;;;17.17;;
13366;SDS011;6752;52.612;13.630;2024-03-22T08:07:07;22.20;;;16.20;;
13366;SDS011;6752;52.612;13.630;2024-03-22T08:12:10;20.87;;;15.67;;
13366;SDS011;6752;52.612;13.630;2024-03-22T08:17:12;22.60;;;16.97;;
13366;SDS011;6752;52.612;13.630;2024-03-22T08:22:15;24.33;;;18.37;;
13366;SDS011;6752;52.612;13.630;2024-03-22T08:27:17;22.97;;;17.40;;
13366;SDS011;6752;52.612;13.630;2024-03-22T08:32:19;22.73;;;17.13;;
13366;SDS011;6752;52.612;13.630;2024-03-22T08:37:22;22.23;;;17.97;;
13366;SDS011;6752;52.612;13.630;2024-03-22T08:42:24;22.43;;;17.13;;
13366;SDS011;6752;52.612;13.630;2024-03-22T08:47:27;23.87;;;18.63;;
13366;SDS011;6752;52.612;13.630;2024-03-22T08:52:29;22.70;;;18.20;;
13366;SDS011;6752;52.612;13.630;2024-03-22T08:57:31;21.53;;;19.20;;
13366;SDS011;6752;52.612;13.630;2024-03-22T09:02:34;23.50;;;21.02;;
13366;SDS011;6752;52.612;13.630;2024-03-22T09:07:36;22.83;;;20.42;;
13366;SDS011;6752;52.612;13.630;2024-03-22T09:12:38;24.57;;;19.33;;
13366;SDS011;6752;52.612;13.630;2024-03-22T09:17:41;22.90;;;18.57;;
13366;SDS011;6752;52.612;13.630;2024-03-22T09:22:43;25.70;;;19.63;;
13366;SDS011;6752;52.612;13.630;2024-03-22T09:27:45;23.60;;;19.17;;
13366;SDS011;6752;52.612;13.630;2024-03-22T09:32:48;23.53;;;19.20;;
13366;SDS011;6752;52.612;13.630;2024-03-22T09:37:50;23.30;;;18.87;;
13366;SDS011;6752;52.612;13.630;2024-03-22T09:42:53;23.43;;;18.30;;
13366;SDS011;6752;52.612;13.630;2024-03-22T09:47:55;24.97;;;19.73;;
13366;SDS011;6752;52.612;13.630;2024-03-22T09:52:57;23.70;;;17.40;;
13366;SDS011;6752;52.612;13.630;2024-03-22T09:58:00;24.63;;;18.73;;
13366;SDS011;6752;52.612;13.630;2024-03-22T10:03:02;23.30;;;20.70;;
13366;SDS011;6752;52.612;13.630;2024-03-22T10:08:04;21.57;;;18.03;;
13366;SDS011;6752;52.612;13.630;2024-03-22T10:13:07;23.23;;;19.07;;
13366;SDS011;6752;52.612;13.630;2024-03-22T10:18:09;21.40;;;19.13;;
13366;SDS011;6752;52.612;13.630;2024-03-22T10:23:11;24.03;;;21.53;;
13366;SDS011;6752;52.612;13.630;2024-03-22T10:28:14;22.03;;;18.30;;
13366;SDS011;6752;52.612;13.630;2024-03-22T10:33:17;23.53;;;18.80;;
13366;SDS011;6752;52.612;13.630;2024-03-22T10:38:20;22.20;;;17.73;;
13366;SDS011;6752;52.612;13.630;2024-03-22T10:43:21;22.10;;;17.53;;
13366;SDS011;6752;52.612;13.630;2024-03-22T10:48:23;21.33;;;17.47;;
13366;SDS011;6752;52.612;13.630;2024-03-22T10:53:26;20.23;;;18.13;;
13366;SDS011;6752;52.612;13.630;2024-03-22T10:58:28;18.43;;;16.20;;
13366;SDS011;6752;52.612;13.630;2024-03-22T11:03:31;18.97;;;16.83;;
13366;SDS011;6752;52.612;13.630;2024-03-22T11:08:33;22.13;;;16.20;;
13366;SDS011;6752;52.612;13.630;2024-03-22T11:13:35;19.93;;;15.83;;
13366;SDS011;6752;52.612;13.630;2024-03-22T11:18:38;19.77;;;16.13;;
13366;SDS011;6752;52.612;13.630;2024-03-22T11:23:40;19.30;;;16.63;;
13366;SDS011;6752;52.612;13.630;2024-03-22T11:28:42;19.50;;;15.70;;
13366;SDS011;6752;52.612;13.630;2024-03-22T11:33:45;18.67;;;15.07;;
13366;SDS011;6752;52.612;13.630;2024-03-22T11:38:47;20.40;;;15.60;;
13366;SDS011;6752;52.612;13.630;2024-03-22T11:43:52;17.90;;;16.02;;
13366;SDS011;6752;52.612;13.630;2024-03-22T11:48:54;16.70;;;15.00;;
13366;SDS011;6752;52.612;13.630;2024-03-22T11:53:57;19.50;;;15.23;;
13366;SDS011;6752;52.612;13.630;2024-03-22T11:58:59;18.70;;;15.13;;
13366;SDS011;6752;52.612;13.630;2024-03-22T12:04:02;16.57;;;14.03;;
13366;SDS011;6752;52.612;13.630;2024-03-22T12:09:04;18.80;;;16.20;;
13366;SDS011;6752;52.612;13.630;2024-03-22T12:14:06;16.77;;;14.77;;
13366;SDS011;6752;52.612;13.630;2024-03-22T12:19:09;18.87;;;15.13;;
13366;SDS011;6752;52.612;13.630;2024-03-22T12:24:11;18.00;;;14.53;;
13366;SDS011;6752;52.612;13.630;2024-03-22T12:29:15;20.47;;;15.63;;
13366;SDS011;6752;52.612;13.630;2024-03-22T12:34:16;19.67;;;17.00;;
13366;SDS011;6752;52.612;13.630;2024-03-22T12:39:18;20.73;;;15.73;;
13366;SDS011;6752;52.612;13.630;2024-03-22T12:44:21;20.50;;;16.57;;
13366;SDS011;6752;52.612;13.630;2024-03-22T12:49:23;21.30;;;16.87;;
13366;SDS011;6752;52.612;13.630;2024-03-22T12:54:25;21.63;;;17.00;;
13366;SDS011;6752;52.612;13.630;2024-03-22T12:59:28;24.37;;;17.27;;
13366;SDS011;6752;52.612;13.630;2024-03-22T13:04:30;21.37;;;18.10;;
13366;SDS011;6752;52.612;13.630;2024-03-22T13:09:32;21.20;;;16.80;;
13366;SDS011;6752;52.612;13.630;2024-03-22T13:14:35;22.23;;;16.80;;
13366;SDS011;6752;52.612;13.630;2024-03-22T13:19:37;21.70;;;16.37;;
13366;SDS011;6752;52.612;13.630;2024-03-22T13:24:40;20.70;;;16.00;;
13366;SDS011;6752;52.612;13.630;2024-03-22T13:29:42;21.23;;;16.00;;
13366;SDS011;6752;52.612;13.630;2024-03-22T13:34:44;20.13;;;15.73;;
13366;SDS011;6752;52.612;13.630;2024-03-22T13:39:50;21.30;;;15.80;;
13366;SDS011;6752;52.612;13.630;2024-03-22T13:44:52;21.13;;;15.80;;
13366;SDS011;6752;52.612;13.630;2024-03-22T13:49:54;20.27;;;16.27;;
13366;SDS011;6752;52.612;13.630;2024-03-22T13:54:58;21.33;;;16.40;;
13366;SDS011;6752;52.612;13.630;2024-03-22T14:00:00;20.33;;;15.47;;
13366;SDS011;6752;52.612;13.630;2024-03-22T14:05:02;17.77;;;14.40;;
13366;SDS011;6752;52.612;13.630;2024-03-22T14:10:05;17.50;;;13.53;;
13366;SDS011;6752;52.612;13.630;2024-03-22T14:15:07;17.73;;;14.57;;
13366;SDS011;6752;52.612;13.630;2024-03-22T14:20:10;17.63;;;13.40;;
13366;SDS011;6752;52.612;13.630;2024-03-22T14:25:12;16.53;;;12.70;;
13366;SDS011;6752;52.612;13.630;2024-03-22T14:30:14;15.97;;;12.60;;
13366;SDS011;6752;52.612;13.630;2024-03-22T14:35:17;15.57;;;12.33;;
13366;SDS011;6752;52.612;13.630;2024-03-22T14:40:19;13.70;;;11.10;;
13366;SDS011;6752;52.612;13.630;2024-03-22T14:45:21;17.37;;;11.97;;
13366;SDS011;6752;52.612;13.630;2024-03-22T14:50:24;15.23;;;12.10;;
13366;SDS011;6752;52.612;13.630;2024-03-22T14:55:26;16.20;;;13.17;;
13366;SDS011;6752;52.612;13.630;2024-03-22T15:00:29;20.87;;;15.70;;
13366;SDS011;6752;52.612;13.630;2024-03-22T15:05:31;18.73;;;15.03;;
13366;SDS011;6752;52.612;13.630;2024-03-22T15:10:33;22.07;;;16.40;;
13366;SDS011;6752;52.612;13.630;2024-03-22T15:15:36;20.87;;;15.67;;
13366;SDS011;6752;52.612;13.630;2024-03-22T15:20:38;20.77;;;15.53;;
13366;SDS011;6752;52.612;13.630;2024-03-22T15:25:41;21.13;;;15.73;;
13366;SDS011;6752;52.612;13.630;2024-03-22T15:30:43;20.03;;;16.20;;
13366;SDS011;6752;52.612;13.630;2024-03-22T15:35:45;19.43;;;14.83;;
13366;SDS011;6752;52.612;13.630;2024-03-22T15:40:47;19.53;;;15.23;;
13366;SDS011;6752;52.612;13.630;2024-03-22T15:45:50;19.67;;;14.90;;
13366;SDS011;6752;52.612;13.630;2024-03-22T15:50:52;20.70;;;16.03;;
13366;SDS011;6752;52.612;13.630;2024-03-22T15:55:57;17.98;;;15.82;;
13366;SDS011;6752;52.612;13.630;2024-03-22T16:01:00;18.23;;;15.23;;
13366;SDS011;6752;52.612;13.630;2024-03-22T16:06:02;18.90;;;14.80;;
13366;SDS011;6752;52.612;13.630;2024-03-22T16:11:04;19.93;;;14.93;;
13366;SDS011;6752;52.612;13.630;2024-03-22T16:16:07;21.13;;;16.23;;
13366;SDS011;6752;52.612;13.630;2024-03-22T16:21:09;18.97;;;14.93;;
13366;SDS011;6752;52.612;13.630;2024-03-22T16:26:11;19.67;;;15.87;;
13366;SDS011;6752;52.612;13.630;2024-03-22T16:31:14;20.00;;;16.07;;
13366;SDS011;6752;52.612;13.630;2024-03-22T16:36:16;20.33;;;16.37;;
13366;SDS011;6752;52.612;13.630;2024-03-22T16:41:19;20.23;;;15.60;;
13366;SDS011;6752;52.612;13.630;2024-03-22T16:46:21;23.67;;;17.20;;
13366;SDS011;6752;52.612;13.630;2024-03-22T16:51:23;22.50;;;16.30;;
13366;SDS011;6752;52.612;13.630;2024-03-22T16:56:26;22.03;;;18.10;;
13366;SDS011;6752;52.612;13.630;2024-03-22T17:01:28;21.37;;;17.83;;
13366;SDS011;6752;52.612;13.630;2024-03-22T17:06:30;18.90;;;16.10;;
13366;SDS011;6752;52.612;13.630;2024-03-22T17:11:33;21.50;;;16.70;;
13366;SDS011;6752;52.612;13.630;2024-03-22T17:16:35;26.07;;;18.73;;
13366;SDS011;6752;52.612;13.630;2024-03-22T17:21:37;24.03;;;19.10;;
13366;SDS011;6752;52.612;13.630;2024-03-22T17:26:40;22.87;;;18.40;;
13366;SDS011;6752;52.612;13.630;2024-03-22T17:31:42;23.70;;;18.00;;
13366;SDS011;6752;52.612;13.630;2024-03-22T17:36:45;21.53;;;18.10;;
13366;SDS011;6752;52.612;13.630;2024-03-22T17:41:47;21.60;;;18.63;;
13366;SDS011;6752;52.612;13.630;2024-03-22T17:46:49;22.37;;;17.47;;
13366;SDS011;6752;52.612;13.630;2024-03-22T17:51:52;24.57;;;18.93;;
13366;SDS011;6752;52.612;13.630;2024-03-22T17:56:54;24.40;;;19.40;;
13366;SDS011;6752;52.612;13.630;2024-03-22T18:01:57;22.83;;;20.40;;
13366;SDS011;6752;52.612;13.630;2024-03-22T18:06:59;22.77;;;18.93;;
13366;SDS011;6752;52.612;13.630;2024-03-22T18:12:01;23.33;;;18.60;;
13366;SDS011;6752;52.612;13.630;2024-03-22T18:17:04;24.77;;;20.50;;
13366;SDS011;6752;52.612;13.630;2024-03-22T18:22:06;23.47;;;20.13;;
13366;SDS011;6752;52.612;13.630;2024-03-22T18:27:08;29.50;;;22.53;;
13366;SDS011;6752;52.612;13.630;2024-03-22T18:32:11;28.37;;;25.37;;
13366;SDS011;6752;52.612;13.630;2024-03-22T18:37:13;26.33;;;23.62;;
13366;SDS011;6752;52.612;13.630;2024-03-22T18:42:15;25.88;;;23.23;;
13366;SDS011;6752;52.612;13.630;2024-03-22T18:52:55;25.20;;;22.57;;
13366;SDS011;6752;52.612;13.630;2024-03-22T18:57:58;24.20;;;21.23;;
13366;SDS011;6752;52.612;13.630;2024-03-22T19:03:00;28.97;;;22.63;;
13366;SDS011;6752;52.612;13.630;2024-03-22T19:08:03;28.93;;;25.00;;
13366;SDS011;6752;52.612;13.630;2024-03-22T19:13:05;28.50;;;24.27;;
13366;SDS011;6752;52.612;13.630;2024-03-22T19:18:08;27.23;;;24.43;;
13366;SDS011;6752;52.612;13.630;2024-03-22T19:23:10;24.90;;;22.50;;
13366;SDS011;6752;52.612;13.630;2024-03-22T19:28:12;26.30;;;23.70;;
13366;SDS011;6752;52.612;13.630;2024-03-22T19:33:17;22.43;;;20.13;;
13366;SDS011;6752;52.612;13.630;2024-03-22T19:38:19;25.03;;;22.13;;
13366;SDS011;6752;52.612;13.630;2024-03-22T19:43:21;22.77;;;18.87;;
13366;SDS011;6752;52.612;13.630;2024-03-22T19:48:24;22.50;;;19.63;;
13366;SDS011;6752;52.612;13.630;2024-03-22T19:53:26;28.93;;;25.77;;
13366;SDS011;6752;52.612;13.630;2024-03-22T19:58:28;25.37;;;22.60;;
13366;SDS011;6752;52.612;13.630;2024-03-22T20:03:31;25.07;;;21.43;;
13366;SDS011;6752;52.612;13.630;2024-03-22T20:08:33;22.67;;;19.80;;
13366;SDS011;6752;52.612;13.630;2024-03-22T20:13:35;24.00;;;19.97;;
13366;SDS011;6752;52.612;13.630;2024-03-22T20:18:38;25.80;;;20.87;;
13366;SDS011;6752;52.612;13.630;2024-03-22T20:23:40;27.63;;;22.87;;
13366;SDS011;6752;52.612;13.630;2024-03-22T20:28:43;25.90;;;23.00;;
13366;SDS011;6752;52.612;13.630;2024-03-22T20:33:45;24.67;;;21.97;;
